Gainesville, GA

7:47 PM EDT on August 22, 2017 (GMT -0400)
Gilmer Memorial

Weather History for KGVL - December, 2013

Change the Weather History Date:

Sunday, December 22, 2013

  Actual Average Record
Temperature  
Mean Temperature 62 °F 42 °F  
Max Temperature 68 °F 51 °F 69 °F (1971)
Min Temperature 56 °F 34 °F 10 °F (1960)
Degree Days  
Heating Degree Days 3 23  
Month to date heating degree days 365 452  
Since 1 July heating degree days 978 987  
Growing Degree Days 12 (Base 50)    
Moisture  
Dew Point 57 °F    
Average Humidity 91    
Maximum Humidity 100    
Minimum Humidity 81    
Precipitation  
Precipitation 3.65 in 0.13 in 3.65 in (2013)
Month to date precipitation 8.33 3.59  
Year to date precipitation 53.07  
Snow  
Snow 0.00 in - - ()
Month to date snowfall 0.0  
Since 1 July snowfall 0.0  
Snow Depth 0.00 in    
Sea Level Pressure  
Sea Level Pressure 30.03 in    
Wind  
Wind Speed 4 mph (SW)    
Max Wind Speed 16 mph    
Max Gust Speed 21 mph    
Visibility 4 miles    
Events Rain    
T = Trace of Precipitation, MM = Missing Value Source: NWS Daily Summary

Daily Weather History Graph

Daily Weather History Graph

Search for Another Location

Airport or City:

Trip Planner

Search our weather history database for the weather conditions in past years. The results will help you decide how hot, cold, wet, or windy it might be!

Date:

Astronomy

Dec. 22, 2013 Rise Set
Actual Time 7:38 AM EST 5:30 PM EST
Civil Twilight 7:10 AM EST 5:57 PM EST
Nautical Twilight 6:38 AM EST 6:29 PM EST
Astronomical Twilight 6:08 AM EST 7:00 PM EST
Moon 10:29 PM EST 10:45 AM EST
Length of Visible Light 10h 47m
Length of Day
9h 51m
Waning Gibbous, 77% of the Moon is Illuminated
Dec 22
Waning Gibbous
Dec 25
Last Quarter
Jan 1
New
Jan 7
First Quarter
Jan 15
Full

Hourly Weather History & Observations

Time (EST) Temp. Dew Point Humidity Pressure Visibility Wind Dir Wind Speed Gust Speed Precip Events Conditions
12:53 AM 68.0 °F 63.0 °F 84% 29.97 in 10.0 mi SSW 4.6 mph - N/A   Overcast
1:53 AM 66.9 °F 63.0 °F 87% 29.98 in 10.0 mi Calm Calm - 0.00 in   Overcast
2:53 AM 66.0 °F 63.0 °F 90% 29.96 in 10.0 mi SSE 6.9 mph - N/A   Partly Cloudy
3:35 AM 66.2 °F 62.6 °F 88% 29.98 in 10.0 mi SSE 8.1 mph - N/A   Partly Cloudy
3:51 AM 66.2 °F 62.6 °F 88% 29.97 in 10.0 mi SSE 6.9 mph - N/A   Mostly Cloudy
3:52 AM 66.0 °F 63.0 °F 90% 29.94 in 10.0 mi SSE 6.9 mph - N/A   Mostly Cloudy
4:20 AM 66.2 °F 62.6 °F 88% 29.95 in 10.0 mi SSE 9.2 mph 20.7 mph N/A   Mostly Cloudy
4:28 AM 66.2 °F 62.6 °F 88% 29.95 in 10.0 mi SSE 10.4 mph - N/A   Mostly Cloudy
4:36 AM 66.2 °F 62.6 °F 88% 29.96 in 10.0 mi South 5.8 mph - N/A   Mostly Cloudy
4:43 AM 66.2 °F 62.6 °F 88% 29.96 in 10.0 mi SSE 6.9 mph - N/A   Scattered Clouds
4:53 AM 66.0 °F 62.1 °F 87% 29.94 in 10.0 mi South 9.2 mph - N/A   Partly Cloudy
5:10 AM 66.2 °F 62.6 °F 88% 29.96 in 10.0 mi South 8.1 mph - N/A   Mostly Cloudy
5:20 AM 66.2 °F 62.6 °F 88% 29.97 in 10.0 mi South 9.2 mph - N/A   Mostly Cloudy
5:53 AM 66.0 °F 62.1 °F 87% 29.95 in 10.0 mi South 6.9 mph - N/A   Overcast
6:27 AM 66.2 °F 62.6 °F 88% 29.97 in 3.0 mi South 8.1 mph - 0.02 in Rain Light Rain
6:53 AM 64.9 °F 63.0 °F 93% 29.94 in 5.0 mi SSE 9.2 mph - 0.04 in Rain Light Rain
7:28 AM 64.4 °F 62.6 °F 94% 29.97 in 3.0 mi South 9.2 mph - 0.06 in Rain Heavy Rain
7:34 AM 64.4 °F 62.6 °F 94% 29.97 in 2.0 mi South 9.2 mph - 0.07 in Rain Light Rain
7:38 AM 64.4 °F 62.6 °F 94% 29.98 in 2.5 mi South 10.4 mph - 0.08 in Rain Rain
7:40 AM 64.4 °F 62.6 °F 94% 29.98 in 3.0 mi South 9.2 mph - 0.08 in Rain Light Rain
7:50 AM 64.4 °F 62.6 °F 94% 29.98 in 7.0 mi South 9.2 mph - 0.08 in   Overcast
7:53 AM 64.9 °F 63.0 °F 93% 29.96 in 7.0 mi SW 8.1 mph 16.1 mph 0.08 in   Overcast
7:59 AM 64.4 °F 62.6 °F 94% 30.00 in 7.0 mi West 11.5 mph 18.4 mph N/A   Overcast
8:04 AM 62.6 °F 59.0 °F 88% 30.01 in 1.8 mi WNW 13.8 mph 20.7 mph 0.07 in Rain Rain
8:08 AM 60.8 °F 57.2 °F 88% 30.01 in 1.2 mi NW 15.0 mph - 0.09 in Rain Heavy Rain
8:13 AM 60.8 °F 57.2 °F 88% 30.02 in 1.2 mi WNW 11.5 mph - 0.14 in Rain Heavy Rain
8:18 AM 60.8 °F 57.2 °F 88% 30.03 in 1.0 mi West 9.2 mph - 0.17 in Rain Heavy Rain
8:53 AM 59.0 °F 55.9 °F 90% 30.01 in 1.0 mi NW 8.1 mph - 0.48 in Rain Heavy Rain
9:10 AM 57.2 °F 55.4 °F 94% 30.04 in 1.2 mi NNW 6.9 mph - 0.10 in Rain Rain
9:14 AM 57.2 °F 57.2 °F 100% 30.05 in 2.0 mi NNW 8.1 mph - 0.11 in Rain Heavy Rain
9:18 AM 57.2 °F 55.4 °F 94% 30.06 in 2.5 mi NW 6.9 mph - 0.12 in Rain Light Rain
9:23 AM 57.2 °F 55.4 °F 94% 30.06 in 1.8 mi WNW 5.8 mph - 0.16 in Rain Heavy Rain
9:30 AM 57.2 °F 55.4 °F 94% 30.05 in 1.5 mi NNW 4.6 mph - 0.18 in Rain Rain
9:33 AM 57.2 °F 55.4 °F 94% 30.04 in 2.0 mi NNW 5.8 mph - 0.19 in Rain Rain
9:53 AM 57.9 °F 55.9 °F 93% 30.03 in 2.0 mi NNW 4.6 mph - 0.26 in Rain Light Rain
10:02 AM 57.2 °F 55.4 °F 94% 30.06 in 1.5 mi Calm Calm - 0.04 in Rain Rain
10:11 AM 57.2 °F 55.4 °F 94% 30.06 in 1.8 mi Calm Calm - 0.06 in Rain Rain
10:19 AM 57.2 °F 55.4 °F 94% 30.09 in 2.0 mi West 6.9 mph - 0.09 in Rain Rain
10:21 AM 57.2 °F 55.4 °F 94% 30.09 in 1.5 mi West 5.8 mph - 0.10 in Rain Heavy Rain
10:24 AM 57.2 °F 55.4 °F 94% 30.07 in 1.0 mi WNW 4.6 mph - 0.13 in Rain Heavy Rain
10:41 AM 57.2 °F 55.4 °F 94% 30.06 in 1.2 mi NW 4.6 mph - 0.27 in Rain Heavy Rain
10:48 AM 57.2 °F 55.4 °F 94% 30.07 in 1.0 mi NW 5.8 mph - 0.32 in Rain Heavy Rain
10:53 AM 57.9 °F 55.9 °F 93% 30.05 in 1.0 mi NNW 5.8 mph - 0.38 in Rain Heavy Rain
11:00 AM 57.2 °F 55.4 °F 94% 30.08 in 0.8 mi WNW 4.6 mph - 0.08 in Rain Heavy Rain
11:13 AM 57.2 °F 55.4 °F 94% 30.08 in 1.2 mi Calm Calm - 0.21 in Rain Rain
11:17 AM 57.2 °F 55.4 °F 94% 30.06 in 2.0 mi Calm Calm - 0.22 in Rain Rain
11:20 AM 57.2 °F 55.4 °F 94% 30.07 in 3.0 mi Calm Calm - 0.22 in Rain Rain
11:26 AM 57.2 °F 55.4 °F 94% 30.08 in 2.5 mi Calm Calm - 0.24 in Rain Rain
11:39 AM 57.2 °F 55.4 °F 94% 30.08 in 2.5 mi North 3.5 mph - 0.28 in Rain Rain
11:53 AM 57.9 °F 55.9 °F 93% 30.06 in 2.5 mi WNW 4.6 mph - 0.33 in Rain Rain
12:01 PM 57.2 °F 55.4 °F 94% 30.08 in 3.0 mi NW 3.5 mph - 0.02 in Rain Rain
12:09 PM 57.2 °F 55.4 °F 94% 30.07 in 2.0 mi Calm Calm - 0.05 in Rain Heavy Rain
12:39 PM 57.2 °F 55.4 °F 94% 30.01 in 1.0 mi North 6.9 mph - 0.24 in Rain Heavy Rain
12:49 PM 57.2 °F 57.2 °F 100% 30.04 in 2.0 mi SE 5.8 mph - 0.28 in Rain Heavy Rain
12:53 PM 57.9 °F 57.0 °F 97% 30.00 in 3.0 mi ESE 3.5 mph - 0.29 in Rain Rain
1:02 PM 57.2 °F 55.4 °F 94% 30.04 in 2.5 mi SE 6.9 mph - 0.05 in Rain Rain
1:14 PM 57.2 °F 57.2 °F 100% 30.05 in 3.0 mi Calm Calm - 0.08 in Rain Rain
1:19 PM 57.2 °F 55.4 °F 94% 30.04 in 2.0 mi Calm Calm - 0.10 in Rain Rain
1:27 PM 57.2 °F 55.4 °F 94% 30.04 in 3.0 mi SSE 4.6 mph - 0.14 in Rain Rain
1:40 PM 57.2 °F 57.2 °F 100% 30.04 in 4.0 mi SE 4.6 mph - 0.18 in Rain Rain
1:53 PM 57.9 °F 57.0 °F 97% 30.02 in 2.0 mi Calm Calm - 0.23 in Rain Rain
1:55 PM 57.2 °F 57.2 °F 100% 30.05 in 1.5 mi Calm Calm - 0.02 in Rain Heavy Rain
2:02 PM 57.2 °F 55.4 °F 94% 30.05 in 0.8 mi Calm Calm - 0.07 in Rain Heavy Rain
2:09 PM 57.2 °F 55.4 °F 94% 30.07 in 1.2 mi WSW 5.8 mph - 0.11 in Rain Heavy Rain
2:17 PM 57.2 °F 57.2 °F 100% 30.05 in 1.8 mi Calm Calm - 0.14 in Rain Rain
2:20 PM 57.2 °F 57.2 °F 100% 30.06 in 2.5 mi WNW 3.5 mph - 0.14 in Rain Light Rain
2:23 PM 57.2 °F 55.4 °F 94% 30.05 in 3.0 mi Calm Calm - 0.15 in Rain Light Rain
2:29 PM 57.2 °F 55.4 °F 94% 30.05 in 2.5 mi Calm Calm - 0.18 in Rain Heavy Rain
2:36 PM 57.2 °F 55.4 °F 94% 30.06 in 2.5 mi South 3.5 mph - 0.20 in Rain Rain
2:40 PM 57.2 °F 55.4 °F 94% 30.05 in 3.0 mi SSE 4.6 mph - 0.20 in Rain Light Rain
2:49 PM 57.2 °F 55.4 °F 94% 30.04 in 5.0 mi SSE 3.5 mph - 0.21 in Rain Light Rain
2:53 PM 57.0 °F 55.9 °F 96% 30.01 in 8.0 mi Calm Calm - 0.22 in Rain Light Rain
3:37 PM 57.2 °F 55.4 °F 94% 30.06 in 2.0 mi Calm Calm - 0.13 in Rain Heavy Rain
3:42 PM 57.2 °F 55.4 °F 94% 30.04 in 1.5 mi Variable 3.5 mph - 0.17 in Rain Heavy Rain
3:48 PM 57.2 °F 55.4 °F 94% 30.07 in 2.0 mi Calm Calm - 0.18 in Rain Rain
3:53 PM 57.0 °F 55.9 °F 96% 30.05 in 3.0 mi Calm Calm - 0.20 in Rain Light Rain
3:58 PM 57.2 °F 55.4 °F 94% 30.08 in 2.0 mi Calm Calm - 0.02 in Rain Heavy Rain
4:12 PM 57.2 °F 55.4 °F 94% 30.07 in 3.0 mi Calm Calm - 0.07 in Rain Rain
4:24 PM 57.2 °F 55.4 °F 94% 30.07 in 2.5 mi Calm Calm - 0.10 in Rain Rain
4:36 PM 57.2 °F 55.4 °F 94% 30.03 in 4.0 mi ENE 4.6 mph - 0.14 in Rain Rain
4:45 PM 57.2 °F 55.4 °F 94% 30.02 in 1.8 mi East 8.1 mph - 0.14 in Rain Light Rain
4:47 PM 57.2 °F 55.4 °F 94% 30.02 in 1.0 mi East 5.8 mph - 0.14 in Rain Light Rain
4:53 PM 57.0 °F 55.9 °F 96% 29.99 in 0.8 mi East 5.8 mph - 0.14 in Rain Light Rain
4:57 PM 57.2 °F 55.4 °F 94% 30.03 in 1.2 mi East 4.6 mph - 0.00 in Rain Light Rain
4:59 PM 57.2 °F 55.4 °F 94% 30.03 in 2.5 mi East 4.6 mph - 0.01 in Rain Light Rain
5:02 PM 57.2 °F 55.4 °F 94% 30.03 in 9.0 mi East 3.5 mph - 0.01 in Rain Light Rain
5:16 PM 57.2 °F 55.4 °F 94% 30.06 in 10.0 mi Calm Calm - 0.01 in Rain Light Rain
5:53 PM 57.0 °F 55.0 °F 93% 30.04 in 6.0 mi SE 3.5 mph - 0.06 in Rain Light Rain
6:33 PM 57.2 °F 55.4 °F 94% 30.03 in 2.5 mi East 4.6 mph - 0.11 in Rain Light Rain
6:40 PM 57.2 °F 55.4 °F 94% 30.05 in 4.0 mi Calm Calm - 0.12 in Rain Rain
6:53 PM 57.0 °F 55.0 °F 93% 30.03 in 4.0 mi Calm Calm - 0.15 in Rain Rain
7:13 PM 57.2 °F 55.4 °F 94% 30.05 in 2.5 mi Calm Calm - 0.06 in Rain Rain
7:20 PM 57.2 °F 55.4 °F 94% 30.06 in 4.0 mi Calm Calm - 0.06 in Rain Light Rain
7:31 PM 57.2 °F 55.4 °F 94% 30.06 in 3.0 mi Calm Calm - 0.07 in Rain Light Rain
7:45 PM 57.2 °F 55.4 °F 94% 30.07 in 3.0 mi Calm Calm - 0.09 in Rain Light Rain
7:53 PM 57.0 °F 55.9 °F 96% 30.03 in 3.0 mi Calm Calm - 0.10 in Rain Light Rain
8:19 PM 57.2 °F 55.4 °F 94% 30.06 in 4.0 mi Calm Calm - 0.05 in Rain Light Rain
8:49 PM 57.2 °F 55.4 °F 94% 30.08 in 2.0 mi Calm Calm - 0.11 in Rain Rain
8:53 PM 57.0 °F 55.9 °F 96% 30.06 in 1.8 mi Calm Calm - 0.13 in Rain Heavy Rain
9:06 PM 57.2 °F 55.4 °F 94% 30.06 in 2.0 mi Calm Calm - 0.07 in Rain Heavy Rain
9:14 PM 57.2 °F 55.4 °F 94% 30.06 in 3.0 mi East 4.6 mph - 0.09 in Rain Rain
9:53 PM 57.0 °F 55.9 °F 96% 30.07 in 2.0 mi WNW 3.5 mph - 0.18 in Rain Rain
10:05 PM 57.2 °F 55.4 °F 94% 30.10 in 2.5 mi WNW 8.1 mph - 0.06 in Rain Heavy Rain
10:30 PM 57.2 °F 55.4 °F 94% 30.10 in 3.0 mi WNW 4.6 mph - 0.19 in Rain Heavy Rain
10:35 PM 57.2 °F 55.4 °F 94% 30.09 in 2.0 mi Calm Calm - 0.22 in Rain Heavy Rain
10:40 PM 57.2 °F 55.4 °F 94% 30.07 in 2.5 mi Calm Calm - 0.25 in Rain Heavy Rain
10:49 PM 57.2 °F 55.4 °F 94% 30.06 in 3.0 mi Calm Calm - 0.29 in Rain Heavy Rain
10:53 PM 57.0 °F 55.0 °F 93% 30.04 in 3.0 mi North 4.6 mph - 0.31 in Rain Heavy Rain
11:13 PM 57.2 °F 55.4 °F 94% 30.09 in 5.0 mi WNW 6.9 mph - 0.04 in Rain Light Rain
11:20 PM 57.2 °F 55.4 °F 94% 30.08 in 3.0 mi NW 8.1 mph - 0.04 in Rain Light Rain
11:29 PM 55.4 °F 55.4 °F 100% 30.09 in 5.0 mi WNW 6.9 mph - 0.05 in Rain Light Rain
11:53 PM 55.9 °F 55.0 °F 97% 30.06 in 10.0 mi WNW 3.5 mph - 0.07 in Rain Light Rain